sensor_id;sensor_type;location;lat;lon;timestamp;pressure;altitude;pressure_sealevel;temperature;humidity
78210;BME280;67485;48.816;9.930;2023-05-21T00:01:41;96428.78;;;15.00;76.42
78210;BME280;67485;48.816;9.930;2023-05-21T00:04:07;96422.59;;;15.01;76.40
78210;BME280;67485;48.816;9.930;2023-05-21T00:06:33;96423.81;;;15.12;76.20
78210;BME280;67485;48.816;9.930;2023-05-21T00:09:03;96419.31;;;15.14;76.21
78210;BME280;67485;48.816;9.930;2023-05-21T00:11:29;96424.13;;;15.23;76.03
78210;BME280;67485;48.816;9.930;2023-05-21T00:13:55;96412.63;;;15.24;76.01
78210;BME280;67485;48.816;9.930;2023-05-21T00:16:21;96411.53;;;15.28;76.41
78210;BME280;67485;48.816;9.930;2023-05-21T00:18:47;96405.31;;;15.29;76.39
78210;BME280;67485;48.816;9.930;2023-05-21T00:21:19;96412.31;;;15.30;76.33
78210;BME280;67485;48.816;9.930;2023-05-21T00:23:51;96402.06;;;15.24;76.58
78210;BME280;67485;48.816;9.930;2023-05-21T00:26:19;96400.22;;;15.26;76.85
78210;BME280;67485;48.816;9.930;2023-05-21T00:28:46;96395.69;;;15.28;76.91
78210;BME280;67485;48.816;9.930;2023-05-21T00:31:12;96393.84;;;15.30;77.23
78210;BME280;67485;48.816;9.930;2023-05-21T00:33:38;96396.31;;;15.33;77.06
78210;BME280;67485;48.816;9.930;2023-05-21T00:36:04;96386.84;;;15.29;77.23
78210;BME280;67485;48.816;9.930;2023-05-21T00:38:30;96390.41;;;15.28;77.37
78210;BME280;67485;48.816;9.930;2023-05-21T00:41:03;96389.81;;;15.23;77.57
78210;BME280;67485;48.816;9.930;2023-05-21T00:43:29;96387.34;;;15.20;77.72
78210;BME280;67485;48.816;9.930;2023-05-21T00:45:57;96384.06;;;15.15;77.84
78210;BME280;67485;48.816;9.930;2023-05-21T00:48:23;96389.34;;;15.15;77.87
78210;BME280;67485;48.816;9.930;2023-05-21T00:50:49;96381.59;;;15.12;78.20
78210;BME280;67485;48.816;9.930;2023-05-21T00:53:16;96385.94;;;15.13;77.98
78210;BME280;67485;48.816;9.930;2023-05-21T00:55:44;96381.50;;;15.13;77.78
78210;BME280;67485;48.816;9.930;2023-05-21T00:58:11;96384.06;;;15.15;77.56
78210;BME280;67485;48.816;9.930;2023-05-21T01:00:36;96379.66;;;15.15;77.94
78210;BME280;67485;48.816;9.930;2023-05-21T01:03:05;96378.78;;;15.15;77.53
78210;BME280;67485;48.816;9.930;2023-05-21T01:05:30;96378.56;;;15.19;77.26
78210;BME280;67485;48.816;9.930;2023-05-21T01:07:57;96380.97;;;15.24;77.09
78210;BME280;67485;48.816;9.930;2023-05-21T01:10:25;96383.59;;;15.24;77.65
78210;BME280;67485;48.816;9.930;2023-05-21T01:12:51;96385.47;;;15.22;77.47
78210;BME280;67485;48.816;9.930;2023-05-21T01:15:19;96377.72;;;15.19;77.53
78210;BME280;67485;48.816;9.930;2023-05-21T01:17:46;96382.81;;;15.22;77.33
78210;BME280;67485;48.816;9.930;2023-05-21T01:20:18;96372.25;;;15.22;77.09
78210;BME280;67485;48.816;9.930;2023-05-21T01:22:51;96376.28;;;15.29;76.62
78210;BME280;67485;48.816;9.930;2023-05-21T01:25:17;96379.31;;;15.39;76.21
78210;BME280;67485;48.816;9.930;2023-05-21T01:27:43;96377.69;;;15.36;76.13
78210;BME280;67485;48.816;9.930;2023-05-21T01:30:09;96378.59;;;15.35;76.29
78210;BME280;67485;48.816;9.930;2023-05-21T01:32:49;96376.97;;;15.33;76.45
78210;BME280;67485;48.816;9.930;2023-05-21T01:35:28;96381.75;;;15.26;76.39
78210;BME280;67485;48.816;9.930;2023-05-21T01:38:07;96376.78;;;15.20;76.50
78210;BME280;67485;48.816;9.930;2023-05-21T01:40:38;96382.91;;;15.20;76.46
78210;BME280;67485;48.816;9.930;2023-05-21T01:43:07;96384.69;;;15.20;76.81
78210;BME280;67485;48.816;9.930;2023-05-21T01:45:36;96388.19;;;15.20;76.35
78210;BME280;67485;48.816;9.930;2023-05-21T01:48:04;96373.19;;;15.21;76.41
78210;BME280;67485;48.816;9.930;2023-05-21T01:50:33;96383.75;;;15.21;76.73
78210;BME280;67485;48.816;9.930;2023-05-21T01:52:59;96381.50;;;15.13;76.19
78210;BME280;67485;48.816;9.930;2023-05-21T01:55:30;96380.81;;;15.10;76.80
78210;BME280;67485;48.816;9.930;2023-05-21T01:57:57;96379.88;;;15.11;76.48
78210;BME280;67485;48.816;9.930;2023-05-21T02:00:25;96389.34;;;15.15;76.37
78210;BME280;67485;48.816;9.930;2023-05-21T02:02:53;96381.38;;;15.16;76.30
78210;BME280;67485;48.816;9.930;2023-05-21T02:05:19;96379.75;;;15.14;76.11
78210;BME280;67485;48.816;9.930;2023-05-21T02:07:46;96382.44;;;15.12;76.26
78210;BME280;67485;48.816;9.930;2023-05-21T02:10:12;96376.63;;;15.05;76.46
78210;BME280;67485;48.816;9.930;2023-05-21T02:12:37;96374.31;;;14.99;76.72
78210;BME280;67485;48.816;9.930;2023-05-21T02:15:04;96378.19;;;14.92;77.13
78210;BME280;67485;48.816;9.930;2023-05-21T02:17:30;96372.91;;;14.92;76.84
78210;BME280;67485;48.816;9.930;2023-05-21T02:19:59;96373.94;;;14.89;77.16
78210;BME280;67485;48.816;9.930;2023-05-21T02:22:42;96380.78;;;14.94;76.80
78210;BME280;67485;48.816;9.930;2023-05-21T02:25:08;96371.19;;;14.91;76.84
78210;BME280;67485;48.816;9.930;2023-05-21T02:27:35;96370.34;;;14.90;76.99
78210;BME280;67485;48.816;9.930;2023-05-21T02:30:06;96368.91;;;14.85;77.48
78210;BME280;67485;48.816;9.930;2023-05-21T02:32:33;96372.69;;;14.79;77.45
78210;BME280;67485;48.816;9.930;2023-05-21T02:35:01;96364.06;;;14.75;77.63
78210;BME280;67485;48.816;9.930;2023-05-21T02:37:30;96364.47;;;14.68;78.64
78210;BME280;67485;48.816;9.930;2023-05-21T02:40:00;96357.22;;;14.54;79.24
78210;BME280;67485;48.816;9.930;2023-05-21T02:42:26;96365.22;;;14.52;79.31
78210;BME280;67485;48.816;9.930;2023-05-21T02:44:52;96366.34;;;14.47;80.13
78210;BME280;67485;48.816;9.930;2023-05-21T02:47:19;96369.91;;;14.46;79.69
78210;BME280;67485;48.816;9.930;2023-05-21T02:49:45;96364.81;;;14.42;80.23
78210;BME280;67485;48.816;9.930;2023-05-21T02:52:11;96357.34;;;14.33;80.47
78210;BME280;67485;48.816;9.930;2023-05-21T02:54:38;96370.81;;;14.27;81.09
78210;BME280;67485;48.816;9.930;2023-05-21T02:57:03;96361.84;;;14.31;80.32
78210;BME280;67485;48.816;9.930;2023-05-21T02:59:29;96368.84;;;14.32;80.34
78210;BME280;67485;48.816;9.930;2023-05-21T03:01:55;96369.81;;;14.30;80.52
78210;BME280;67485;48.816;9.930;2023-05-21T03:04:20;96364.53;;;14.30;80.41
78210;BME280;67485;48.816;9.930;2023-05-21T03:06:47;96358.50;;;14.27;80.20
78210;BME280;67485;48.816;9.930;2023-05-21T03:09:12;96361.84;;;14.31;80.00
78210;BME280;67485;48.816;9.930;2023-05-21T03:11:39;96361.06;;;14.29;80.43
78210;BME280;67485;48.816;9.930;2023-05-21T03:14:04;96366.41;;;14.27;80.72
78210;BME280;67485;48.816;9.930;2023-05-21T03:16:31;96355.16;;;14.24;80.93
78210;BME280;67485;48.816;9.930;2023-05-21T03:18:59;96360.91;;;14.15;81.46
78210;BME280;67485;48.816;9.930;2023-05-21T03:21:26;96355.63;;;14.15;81.43
78210;BME280;67485;48.816;9.930;2023-05-21T03:23:55;96357.47;;;14.13;81.75
78210;BME280;67485;48.816;9.930;2023-05-21T03:26:24;96357.56;;;14.11;81.64
78210;BME280;67485;48.816;9.930;2023-05-21T03:28:52;96358.56;;;14.08;81.76
78210;BME280;67485;48.816;9.930;2023-05-21T03:31:18;96363.75;;;14.10;81.54
78210;BME280;67485;48.816;9.930;2023-05-21T03:34:01;96354.84;;;14.13;80.61
78210;BME280;67485;48.816;9.930;2023-05-21T03:36:29;96350.66;;;14.08;80.64
78210;BME280;67485;48.816;9.930;2023-05-21T03:38:55;96358.56;;;14.08;80.82
78210;BME280;67485;48.816;9.930;2023-05-21T03:41:21;96357.69;;;14.08;81.29
78210;BME280;67485;48.816;9.930;2023-05-21T03:43:51;96363.03;;;14.06;81.35
78210;BME280;67485;48.816;9.930;2023-05-21T03:46:20;96361.19;;;14.08;80.95
78210;BME280;67485;48.816;9.930;2023-05-21T03:48:58;96357.31;;;14.16;80.78
78210;BME280;67485;48.816;9.930;2023-05-21T03:51:25;96358.25;;;14.15;80.85
78210;BME280;67485;48.816;9.930;2023-05-21T03:53:52;96366.78;;;14.20;80.76
78210;BME280;67485;48.816;9.930;2023-05-21T03:56:18;96368.56;;;14.19;81.06
78210;BME280;67485;48.816;9.930;2023-05-21T03:58:44;96375.53;;;14.20;80.90
78210;BME280;67485;48.816;9.930;2023-05-21T04:01:10;96376.38;;;14.21;80.88
78210;BME280;67485;48.816;9.930;2023-05-21T04:03:36;96373.75;;;14.21;80.98
78210;BME280;67485;48.816;9.930;2023-05-21T04:06:02;96369.56;;;14.17;80.85
78210;BME280;67485;48.816;9.930;2023-05-21T04:08:28;96377.13;;;14.05;81.38
78210;BME280;67485;48.816;9.930;2023-05-21T04:10:54;96379.22;;;13.99;81.93
78210;BME280;67485;48.816;9.930;2023-05-21T04:13:19;96371.34;;;13.97;82.03
78210;BME280;67485;48.816;9.930;2023-05-21T04:15:47;96382.84;;;13.96;81.97
78210;BME280;67485;48.816;9.930;2023-05-21T04:18:13;96379.59;;;13.91;82.41
78210;BME280;67485;48.816;9.930;2023-05-21T04:20:41;96382.25;;;13.89;82.73
78210;BME280;67485;48.816;9.930;2023-05-21T04:23:07;96384.53;;;13.97;81.74
78210;BME280;67485;48.816;9.930;2023-05-21T04:25:33;96382.97;;;13.93;82.51
78210;BME280;67485;48.816;9.930;2023-05-21T04:27:59;96391.81;;;13.92;82.63
78210;BME280;67485;48.816;9.930;2023-05-21T04:30:25;96394.94;;;14.00;81.96
78210;BME280;67485;48.816;9.930;2023-05-21T04:32:51;96384.41;;;14.00;81.58
78210;BME280;67485;48.816;9.930;2023-05-21T04:35:19;96398.06;;;14.08;81.68
78210;BME280;67485;48.816;9.930;2023-05-21T04:37:45;96397.91;;;14.11;81.17
78210;BME280;67485;48.816;9.930;2023-05-21T04:40:12;96396.91;;;14.14;80.72
78210;BME280;67485;48.816;9.930;2023-05-21T04:42:45;96401.97;;;14.19;80.49
78210;BME280;67485;48.816;9.930;2023-05-21T04:45:13;96392.19;;;14.21;80.45
78210;BME280;67485;48.816;9.930;2023-05-21T04:47:41;96400.75;;;14.26;80.12
78210;BME280;67485;48.816;9.930;2023-05-21T04:50:08;96400.06;;;14.22;80.47
78210;BME280;67485;48.816;9.930;2023-05-21T04:52:38;96413.44;;;14.18;80.96
78210;BME280;67485;48.816;9.930;2023-05-21T04:55:06;96405.63;;;14.16;81.24
78210;BME280;67485;48.816;9.930;2023-05-21T04:57:32;96411.72;;;14.17;81.57
78210;BME280;67485;48.816;9.930;2023-05-21T04:59:59;96410.81;;;14.18;81.50
78210;BME280;67485;48.816;9.930;2023-05-21T05:02:25;96412.59;;;14.17;81.67
78210;BME280;67485;48.816;9.930;2023-05-21T05:04:51;96411.44;;;14.23;81.23
78210;BME280;67485;48.816;9.930;2023-05-21T05:07:17;96409.59;;;14.25;80.97
78210;BME280;67485;48.816;9.930;2023-05-21T05:09:42;96411.00;;;14.32;80.67
78210;BME280;67485;48.816;9.930;2023-05-21T05:12:08;96410.69;;;14.38;80.27
78210;BME280;67485;48.816;9.930;2023-05-21T05:14:34;96410.56;;;14.41;80.11
78210;BME280;67485;48.816;9.930;2023-05-21T05:17:00;96408.53;;;14.47;80.22
78210;BME280;67485;48.816;9.930;2023-05-21T05:19:27;96403.81;;;14.53;79.37
78210;BME280;67485;48.816;9.930;2023-05-21T05:21:52;96397.88;;;14.50;79.71
78210;BME280;67485;48.816;9.930;2023-05-21T05:24:20;96400.03;;;14.59;79.36
78210;BME280;67485;48.816;9.930;2023-05-21T05:26:45;96400.59;;;14.66;79.13
78210;BME280;67485;48.816;9.930;2023-05-21T05:29:11;96400.91;;;14.77;78.85
78210;BME280;67485;48.816;9.930;2023-05-21T05:31:37;96401.31;;;14.87;78.34
78210;BME280;67485;48.816;9.930;2023-05-21T05:34:03;96398.53;;;14.90;77.67
78210;BME280;67485;48.816;9.930;2023-05-21T05:36:28;96393.25;;;15.07;77.00
78210;BME280;67485;48.816;9.930;2023-05-21T05:38:54;96398.28;;;15.12;76.95
78210;BME280;67485;48.816;9.930;2023-05-21T05:41:21;96392.44;;;15.23;76.31
78210;BME280;67485;48.816;9.930;2023-05-21T05:43:48;96394.16;;;15.24;76.25
78210;BME280;67485;48.816;9.930;2023-05-21T05:46:15;96392.91;;;15.31;76.11
78210;BME280;67485;48.816;9.930;2023-05-21T05:48:41;96399.88;;;15.32;76.39
78210;BME280;67485;48.816;9.930;2023-05-21T05:51:07;96395.56;;;15.31;76.59
78210;BME280;67485;48.816;9.930;2023-05-21T05:53:34;96400.97;;;15.28;75.85
78210;BME280;67485;48.816;9.930;2023-05-21T05:56:00;96387.91;;;15.43;76.01
78210;BME280;67485;48.816;9.930;2023-05-21T05:58:26;96389.81;;;15.56;74.36
78210;BME280;67485;48.816;9.930;2023-05-21T06:01:12;96388.03;;;15.57;74.60
78210;BME280;67485;48.816;9.930;2023-05-21T06:03:38;96394.69;;;15.64;74.76
78210;BME280;67485;48.816;9.930;2023-05-21T06:06:13;96389.66;;;15.76;75.00
78210;BME280;67485;48.816;9.930;2023-05-21T06:08:39;96388.75;;;15.77;74.54
78210;BME280;67485;48.816;9.930;2023-05-21T06:11:04;96396.19;;;15.86;74.80
78210;BME280;67485;48.816;9.930;2023-05-21T06:13:30;96397.91;;;15.87;74.08
78210;BME280;67485;48.816;9.930;2023-05-21T06:15:56;96396.19;;;16.02;74.04
78210;BME280;67485;48.816;9.930;2023-05-21T06:18:22;96391.59;;;16.05;72.99
78210;BME280;67485;48.816;9.930;2023-05-21T06:20:48;96402.19;;;16.21;72.87
78210;BME280;67485;48.816;9.930;2023-05-21T06:23:14;96405.75;;;16.20;72.11
78210;BME280;67485;48.816;9.930;2023-05-21T06:25:42;96400.91;;;16.29;71.74
78210;BME280;67485;48.816;9.930;2023-05-21T06:28:07;96398.56;;;16.38;71.32
78210;BME280;67485;48.816;9.930;2023-05-21T06:30:34;96402.19;;;16.37;71.15
78210;BME280;67485;48.816;9.930;2023-05-21T06:32:59;96405.41;;;16.43;70.67
78210;BME280;67485;48.816;9.930;2023-05-21T06:35:25;96394.38;;;16.50;70.22
78210;BME280;67485;48.816;9.930;2023-05-21T06:37:51;96402.81;;;16.57;69.77
78210;BME280;67485;48.816;9.930;2023-05-21T06:40:16;96391.03;;;16.63;68.29
78210;BME280;67485;48.816;9.930;2023-05-21T06:42:44;96388.94;;;16.84;67.88
78210;BME280;67485;48.816;9.930;2023-05-21T06:45:28;96395.78;;;16.72;67.62
78210;BME280;67485;48.816;9.930;2023-05-21T06:47:58;96396.56;;;17.05;68.11
78210;BME280;67485;48.816;9.930;2023-05-21T06:50:25;96401.69;;;17.08;66.83
78210;BME280;67485;48.816;9.930;2023-05-21T06:52:50;96395.09;;;17.29;66.13
78210;BME280;67485;48.816;9.930;2023-05-21T06:55:16;96404.00;;;17.28;65.98
78210;BME280;67485;48.816;9.930;2023-05-21T06:58:20;96402.59;;;17.23;66.19
78210;BME280;67485;48.816;9.930;2023-05-21T07:00:47;96404.47;;;17.35;66.18
78210;BME280;67485;48.816;9.930;2023-05-21T07:03:13;96408.34;;;17.44;65.24
78210;BME280;67485;48.816;9.930;2023-05-21T07:05:40;96400.59;;;17.55;64.54
78210;BME280;67485;48.816;9.930;2023-05-21T07:08:05;96401.16;;;17.46;64.77
78210;BME280;67485;48.816;9.930;2023-05-21T07:10:31;96407.06;;;17.65;64.61
78210;BME280;67485;48.816;9.930;2023-05-21T07:12:57;96410.44;;;17.67;64.40
78210;BME280;67485;48.816;9.930;2023-05-21T07:15:23;96404.66;;;17.90;64.17
78210;BME280;67485;48.816;9.930;2023-05-21T07:17:48;96404.75;;;18.03;63.05
78210;BME280;67485;48.816;9.930;2023-05-21T07:20:14;96413.88;;;17.98;63.63
78210;BME280;67485;48.816;9.930;2023-05-21T07:22:44;96410.28;;;17.71;63.59
78210;BME280;67485;48.816;9.930;2023-05-21T07:25:12;96408.28;;;17.60;62.83
78210;BME280;67485;48.816;9.930;2023-05-21T07:27:38;96413.00;;;17.83;63.33
78210;BME280;67485;48.816;9.930;2023-05-21T07:30:04;96413.47;;;18.05;63.07
78210;BME280;67485;48.816;9.930;2023-05-21T07:32:30;96409.28;;;18.15;61.71
78210;BME280;67485;48.816;9.930;2023-05-21T07:34:58;96416.50;;;18.13;62.75
78210;BME280;67485;48.816;9.930;2023-05-21T07:37:26;96409.94;;;18.19;61.18
78210;BME280;67485;48.816;9.930;2023-05-21T07:39:53;96418.16;;;18.43;60.14
78210;BME280;67485;48.816;9.930;2023-05-21T07:42:19;96407.03;;;18.51;60.51
78210;BME280;67485;48.816;9.930;2023-05-21T07:44:45;96411.84;;;18.58;60.44
78210;BME280;67485;48.816;9.930;2023-05-21T07:47:10;96407.47;;;18.57;60.46
78210;BME280;67485;48.816;9.930;2023-05-21T07:49:36;96410.41;;;18.80;60.05
78210;BME280;67485;48.816;9.930;2023-05-21T07:52:02;96408.03;;;18.62;59.25
78210;BME280;67485;48.816;9.930;2023-05-21T07:54:28;96418.72;;;18.88;59.14
78210;BME280;67485;48.816;9.930;2023-05-21T07:56:54;96408.69;;;18.79;60.17
78210;BME280;67485;48.816;9.930;2023-05-21T07:59:39;96412.75;;;18.72;60.53
78210;BME280;67485;48.816;9.930;2023-05-21T08:02:05;96414.88;;;18.79;59.28
78210;BME280;67485;48.816;9.930;2023-05-21T08:04:31;96416.78;;;19.05;58.87
78210;BME280;67485;48.816;9.930;2023-05-21T08:06:57;96414.41;;;19.00;58.68
78210;BME280;67485;48.816;9.930;2023-05-21T08:09:23;96416.25;;;19.00;57.95
78210;BME280;67485;48.816;9.930;2023-05-21T08:11:48;96410.72;;;19.03;59.06
78210;BME280;67485;48.816;9.930;2023-05-21T08:14:14;96408.75;;;19.19;58.71
78210;BME280;67485;48.816;9.930;2023-05-21T08:16:40;96418.66;;;19.43;58.25
78210;BME280;67485;48.816;9.930;2023-05-21T08:19:06;96412.47;;;19.55;57.63
78210;BME280;67485;48.816;9.930;2023-05-21T08:21:32;96416.72;;;19.71;56.60
78210;BME280;67485;48.816;9.930;2023-05-21T08:23:59;96410.22;;;19.88;55.40
78210;BME280;67485;48.816;9.930;2023-05-21T08:26:25;96414.69;;;20.13;54.50
78210;BME280;67485;48.816;9.930;2023-05-21T08:28:51;96416.16;;;20.17;54.43
78210;BME280;67485;48.816;9.930;2023-05-21T08:31:17;96419.97;;;20.26;54.30
78210;BME280;67485;48.816;9.930;2023-05-21T08:33:53;96410.59;;;20.57;53.74
78210;BME280;67485;48.816;9.930;2023-05-21T08:36:29;96420.41;;;20.81;53.79
78210;BME280;67485;48.816;9.930;2023-05-21T08:39:01;96415.66;;;20.73;53.45
78210;BME280;67485;48.816;9.930;2023-05-21T08:41:40;96414.75;;;21.21;52.48
78210;BME280;67485;48.816;9.930;2023-05-21T08:44:11;96421.66;;;20.88;51.63
78210;BME280;67485;48.816;9.930;2023-05-21T08:46:39;96415.47;;;20.88;53.08
78210;BME280;67485;48.816;9.930;2023-05-21T08:49:12;96420.22;;;20.96;52.68
78210;BME280;67485;48.816;9.930;2023-05-21T08:51:39;96414.13;;;21.18;51.51
78210;BME280;67485;48.816;9.930;2023-05-21T08:54:06;96417.38;;;21.10;51.94
78210;BME280;67485;48.816;9.930;2023-05-21T08:56:34;96401.91;;;21.27;51.27
78210;BME280;67485;48.816;9.930;2023-05-21T08:59:01;96416.47;;;21.34;51.69
78210;BME280;67485;48.816;9.930;2023-05-21T09:01:32;96408.19;;;21.14;51.85
78210;BME280;67485;48.816;9.930;2023-05-21T09:04:14;96415.03;;;21.41;51.61
78210;BME280;67485;48.816;9.930;2023-05-21T09:06:41;96427.44;;;21.53;50.58
78210;BME280;67485;48.816;9.930;2023-05-21T09:09:16;96419.28;;;21.08;51.80
78210;BME280;67485;48.816;9.930;2023-05-21T09:11:48;96423.47;;;21.70;51.30
78210;BME280;67485;48.816;9.930;2023-05-21T09:14:14;96425.31;;;21.81;50.29
78210;BME280;67485;48.816;9.930;2023-05-21T09:17:06;96418.75;;;21.74;49.88
78210;BME280;67485;48.816;9.930;2023-05-21T09:19:32;96424.56;;;21.68;49.43
78210;BME280;67485;48.816;9.930;2023-05-21T09:22:02;96423.34;;;21.72;49.82
78210;BME280;67485;48.816;9.930;2023-05-21T09:24:32;96419.47;;;21.76;49.85
78210;BME280;67485;48.816;9.930;2023-05-21T09:26:58;96417.16;;;21.72;51.19
78210;BME280;67485;48.816;9.930;2023-05-21T09:32:42;96418.75;;;21.97;50.09
78210;BME280;67485;48.816;9.930;2023-05-21T09:37:46;96420.19;;;22.24;48.72
78210;BME280;67485;48.816;9.930;2023-05-21T09:40:17;96420.91;;;22.26;48.83
78210;BME280;67485;48.816;9.930;2023-05-21T09:42:49;96420.31;;;21.99;49.42
78210;BME280;67485;48.816;9.930;2023-05-21T09:45:25;96426.41;;;22.01;49.34
78210;BME280;67485;48.816;9.930;2023-05-21T09:47:55;96415.34;;;22.17;50.53
78210;BME280;67485;48.816;9.930;2023-05-21T09:50:27;96422.38;;;22.53;49.83
78210;BME280;67485;48.816;9.930;2023-05-21T09:52:53;96416.75;;;22.56;48.50
78210;BME280;67485;48.816;9.930;2023-05-21T09:55:24;96417.03;;;22.53;48.89
78210;BME280;67485;48.816;9.930;2023-05-21T09:57:51;96413.16;;;22.45;47.71
78210;BME280;67485;48.816;9.930;2023-05-21T10:00:24;96417.16;;;22.17;47.96
78210;BME280;67485;48.816;9.930;2023-05-21T10:03:00;96416.31;;;22.39;47.76
78210;BME280;67485;48.816;9.930;2023-05-21T10:05:27;96419.66;;;22.64;47.38
78210;BME280;67485;48.816;9.930;2023-05-21T10:10:23;96417.94;;;22.74;47.84
78210;BME280;67485;48.816;9.930;2023-05-21T10:13:00;96420.72;;;23.05;46.32
78210;BME280;67485;48.816;9.930;2023-05-21T10:15:31;96412.53;;;22.86;47.64
78210;BME280;67485;48.816;9.930;2023-05-21T10:18:00;96412.44;;;23.08;47.90
78210;BME280;67485;48.816;9.930;2023-05-21T10:20:26;96417.38;;;22.92;47.30
78210;BME280;67485;48.816;9.930;2023-05-21T10:22:52;96416.25;;;22.62;47.31
78210;BME280;67485;48.816;9.930;2023-05-21T10:25:19;96412.34;;;22.66;47.19
78210;BME280;67485;48.816;9.930;2023-05-21T10:27:45;96417.06;;;22.85;48.13
78210;BME280;67485;48.816;9.930;2023-05-21T10:30:13;96409.63;;;23.21;47.61
78210;BME280;67485;48.816;9.930;2023-05-21T10:32:39;96413.09;;;23.33;46.59
78210;BME280;67485;48.816;9.930;2023-05-21T10:35:07;96416.03;;;22.97;47.00
78210;BME280;67485;48.816;9.930;2023-05-21T10:37:34;96416.91;;;22.87;46.85
78210;BME280;67485;48.816;9.930;2023-05-21T10:39:59;96408.66;;;23.11;45.42
78210;BME280;67485;48.816;9.930;2023-05-21T10:42:51;96410.19;;;23.04;44.99
78210;BME280;67485;48.816;9.930;2023-05-21T10:56:29;96411.84;;;23.37;44.63
78210;BME280;67485;48.816;9.930;2023-05-21T11:01:30;96402.47;;;23.22;44.94
78210;BME280;67485;48.816;9.930;2023-05-21T11:03:58;96407.00;;;23.31;43.96
78210;BME280;67485;48.816;9.930;2023-05-21T11:06:25;96404.03;;;23.45;45.25
78210;BME280;67485;48.816;9.930;2023-05-21T11:08:51;96406.59;;;23.99;44.02
78210;BME280;67485;48.816;9.930;2023-05-21T11:14:38;96406.72;;;23.76;43.80
78210;BME280;67485;48.816;9.930;2023-05-21T11:19:36;96401.13;;;23.37;44.47
78210;BME280;67485;48.816;9.930;2023-05-21T11:22:30;96402.16;;;23.67;45.24
78210;BME280;67485;48.816;9.930;2023-05-21T11:24:57;96407.56;;;23.98;42.86
78210;BME280;67485;48.816;9.930;2023-05-21T11:27:35;96403.31;;;24.36;42.87
78210;BME280;67485;48.816;9.930;2023-05-21T11:30:07;96408.66;;;24.36;42.02
78210;BME280;67485;48.816;9.930;2023-05-21T11:32:38;96402.72;;;24.23;42.19
78210;BME280;67485;48.816;9.930;2023-05-21T11:35:05;96396.00;;;24.38;42.21
78210;BME280;67485;48.816;9.930;2023-05-21T11:37:31;96402.88;;;24.31;41.81
78210;BME280;67485;48.816;9.930;2023-05-21T11:42:48;96392.53;;;24.07;41.62
78210;BME280;67485;48.816;9.930;2023-05-21T11:45:19;96390.84;;;24.66;41.83
78210;BME280;67485;48.816;9.930;2023-05-21T11:47:46;96391.56;;;24.78;41.07
78210;BME280;67485;48.816;9.930;2023-05-21T11:50:14;96383.94;;;25.13;42.05
78210;BME280;67485;48.816;9.930;2023-05-21T11:52:41;96385.34;;;25.36;39.85
78210;BME280;67485;48.816;9.930;2023-05-21T11:55:08;96388.16;;;25.45;40.73
78210;BME280;67485;48.816;9.930;2023-05-21T11:57:33;96386.78;;;25.40;42.06
78210;BME280;67485;48.816;9.930;2023-05-21T12:00:01;96390.41;;;25.59;42.94
78210;BME280;67485;48.816;9.930;2023-05-21T12:02:30;96383.94;;;25.32;41.83
78210;BME280;67485;48.816;9.930;2023-05-21T12:04:56;96383.13;;;24.83;42.53
78210;BME280;67485;48.816;9.930;2023-05-21T12:07:28;96386.66;;;25.03;42.43
78210;BME280;67485;48.816;9.930;2023-05-21T12:09:54;96382.94;;;25.33;41.84
78210;BME280;67485;48.816;9.930;2023-05-21T12:12:23;96380.75;;;25.66;41.72
78210;BME280;67485;48.816;9.930;2023-05-21T12:14:50;96381.22;;;26.09;41.62
78210;BME280;67485;48.816;9.930;2023-05-21T12:17:17;96371.47;;;26.54;40.83
78210;BME280;67485;48.816;9.930;2023-05-21T12:19:44;96371.81;;;27.23;41.16
78210;BME280;67485;48.816;9.930;2023-05-21T12:22:10;96372.81;;;27.66;40.00
78210;BME280;67485;48.816;9.930;2023-05-21T12:24:37;96374.31;;;27.95;38.38
78210;BME280;67485;48.816;9.930;2023-05-21T12:27:05;96368.66;;;27.46;38.03
78210;BME280;67485;48.816;9.930;2023-05-21T12:29:45;96370.22;;;27.57;38.72
78210;BME280;67485;48.816;9.930;2023-05-21T12:32:14;96369.56;;;27.89;38.13
78210;BME280;67485;48.816;9.930;2023-05-21T12:37:11;96368.84;;;27.79;38.80
78210;BME280;67485;48.816;9.930;2023-05-21T12:39:47;96373.94;;;27.90;38.72
78210;BME280;67485;48.816;9.930;2023-05-21T12:42:14;96375.63;;;27.91;38.37
78210;BME280;67485;48.816;9.930;2023-05-21T12:44:44;96372.75;;;28.11;37.64
78210;BME280;67485;48.816;9.930;2023-05-21T12:47:11;96370.19;;;27.83;38.27
78210;BME280;67485;48.816;9.930;2023-05-21T12:49:44;96371.19;;;27.47;39.63
78210;BME280;67485;48.816;9.930;2023-05-21T12:52:14;96372.94;;;27.39;39.66
78210;BME280;67485;48.816;9.930;2023-05-21T12:54:45;96373.97;;;27.01;40.26
78210;BME280;67485;48.816;9.930;2023-05-21T12:57:18;96373.44;;;26.80;40.52
78210;BME280;67485;48.816;9.930;2023-05-21T13:02:31;96373.56;;;27.32;41.45
78210;BME280;67485;48.816;9.930;2023-05-21T13:04:59;96368.88;;;27.16;39.78
78210;BME280;67485;48.816;9.930;2023-05-21T13:07:26;96372.03;;;27.30;39.85
78210;BME280;67485;48.816;9.930;2023-05-21T13:09:53;96370.69;;;27.34;39.88
78210;BME280;67485;48.816;9.930;2023-05-21T13:12:23;96362.44;;;27.27;40.34
78210;BME280;67485;48.816;9.930;2023-05-21T13:14:49;96356.41;;;27.51;40.22
78210;BME280;67485;48.816;9.930;2023-05-21T13:17:16;96355.81;;;28.00;38.93
78210;BME280;67485;48.816;9.930;2023-05-21T13:19:45;96354.56;;;27.34;37.58
78210;BME280;67485;48.816;9.930;2023-05-21T13:22:11;96352.47;;;27.19;38.41
78210;BME280;67485;48.816;9.930;2023-05-21T13:24:36;96357.06;;;27.09;37.66
78210;BME280;67485;48.816;9.930;2023-05-21T13:27:04;96358.47;;;26.31;39.16
78210;BME280;67485;48.816;9.930;2023-05-21T13:29:30;96357.69;;;26.85;38.96
78210;BME280;67485;48.816;9.930;2023-05-21T13:31:55;96357.31;;;26.34;39.52
78210;BME280;67485;48.816;9.930;2023-05-21T13:34:21;96357.88;;;26.37;39.65
78210;BME280;67485;48.816;9.930;2023-05-21T13:36:47;96348.66;;;26.22;37.44
78210;BME280;67485;48.816;9.930;2023-05-21T13:39:12;96353.34;;;26.38;37.48
78210;BME280;67485;48.816;9.930;2023-05-21T13:41:38;96342.63;;;26.56;35.03